createdAt,value
2019-04-25T00:00:15.153Z,71.30
2019-04-25T00:02:46.527Z,72.20
2019-04-25T00:05:16.653Z,72.90
2019-04-25T00:07:46.979Z,72.60
2019-04-25T00:10:16.816Z,72.90
2019-04-25T00:12:46.287Z,72.00
2019-04-25T00:15:16.024Z,70.80
2019-04-25T00:17:46.180Z,71.20
2019-04-25T00:20:16.169Z,72.30
2019-04-25T00:22:47.295Z,73.00
2019-04-25T00:25:27.076Z,73.70
2019-04-25T00:27:56.769Z,72.10
2019-04-25T00:30:27.669Z,72.60
2019-04-25T00:32:57.156Z,71.90
2019-04-25T00:35:26.502Z,70.80
2019-04-25T00:37:55.983Z,71.70
2019-04-25T00:40:25.632Z,74.40
2019-04-25T00:42:55.157Z,75.80
2019-04-25T00:45:24.608Z,77.40
2019-04-25T00:47:53.968Z,77.70
2019-04-25T00:50:23.471Z,77.20
2019-04-25T00:52:53.714Z,76.80
2019-04-25T00:55:28.371Z,75.30
2019-04-25T00:57:59.728Z,75.70
2019-04-25T01:00:39.292Z,75.10
2019-04-25T01:03:15.763Z,75.00
2019-04-25T01:05:45.672Z,75.30
2019-04-25T01:08:15.413Z,75.60
2019-04-25T01:10:44.744Z,74.70
2019-04-25T01:13:14.287Z,75.00
2019-04-25T01:15:44.824Z,74.40
2019-04-25T01:18:15.385Z,74.50
2019-04-25T01:20:45.379Z,74.70
2019-04-25T01:23:15.044Z,74.80
2019-04-25T01:25:46.001Z,75.00
2019-04-25T01:28:15.370Z,74.70
2019-04-25T01:30:46.288Z,74.60
2019-04-25T01:33:16.223Z,74.90
2019-04-25T01:35:47.382Z,75.10
2019-04-25T01:38:21.180Z,75.50
2019-04-25T01:41:08.308Z,74.90
2019-04-25T01:43:43.651Z,75.30
2019-04-25T01:46:14.802Z,75.60
2019-04-25T01:48:45.396Z,75.90
2019-04-25T01:51:14.812Z,75.60
2019-04-25T01:53:44.526Z,76.20
2019-04-25T01:56:14.346Z,75.60
2019-04-25T01:58:43.912Z,75.40
2019-04-25T02:01:14.497Z,75.50
2019-04-25T02:03:44.291Z,76.20
2019-04-25T02:06:13.787Z,76.80
2019-04-25T02:08:44.168Z,76.20
2019-04-25T02:11:20.990Z,77.30
2019-04-25T02:13:51.321Z,76.20
2019-04-25T02:16:20.862Z,76.70
2019-04-25T02:18:51.012Z,77.30
2019-04-25T02:21:21.262Z,76.90
2019-04-25T02:23:50.525Z,77.80
2019-04-25T02:26:19.935Z,77.50
2019-04-25T02:28:49.204Z,77.30
2019-04-25T02:31:18.566Z,77.30
2019-04-25T02:33:48.211Z,77.30
2019-04-25T02:36:17.629Z,77.20
2019-04-25T02:38:47.233Z,77.60
2019-04-25T02:41:16.837Z,77.40
2019-04-25T02:43:46.290Z,78.00
2019-04-25T02:46:24.838Z,78.20
2019-04-25T02:49:09.648Z,78.00
2019-04-25T02:51:59.076Z,77.90
2019-04-25T02:54:27.633Z,77.70
2019-04-25T02:56:57.478Z,77.60
2019-04-25T02:59:28.853Z,77.80
2019-04-25T03:01:59.163Z,77.70
2019-04-25T03:04:28.733Z,77.30
2019-04-25T03:06:59.129Z,77.00
2019-04-25T03:09:29.086Z,76.90
2019-04-25T03:11:58.895Z,76.60
2019-04-25T03:14:29.482Z,76.80
2019-04-25T03:17:00.343Z,76.60
2019-04-25T03:19:31.436Z,76.50
2019-04-25T03:22:06.307Z,76.50
2019-04-25T03:24:42.160Z,76.10
2019-04-25T03:27:11.741Z,76.20
2019-04-25T03:29:41.003Z,76.30
2019-04-25T03:32:14.319Z,76.50
2019-04-25T03:34:41.535Z,75.90
2019-04-25T03:37:11.536Z,76.10
2019-04-25T03:39:41.216Z,76.70
2019-04-25T03:42:10.655Z,75.60
2019-04-25T03:44:40.136Z,75.50
2019-04-25T03:47:09.773Z,76.40
2019-04-25T03:49:40.604Z,75.20
2019-04-25T03:52:10.147Z,74.80
2019-04-25T03:54:39.576Z,74.80
2019-04-25T03:57:09.041Z,74.60
2019-04-25T03:59:38.401Z,74.50
2019-04-25T04:02:08.190Z,74.70
2019-04-25T04:04:38.414Z,74.80
2019-04-25T04:07:09.819Z,75.40
2019-04-25T04:09:38.789Z,75.30
2019-04-25T04:12:08.095Z,75.30
2019-04-25T04:14:37.468Z,75.10
2019-04-25T04:17:26.104Z,74.90
2019-04-25T04:19:57.076Z,74.70
2019-04-25T04:29:25.141Z,75.10
2019-04-25T04:31:54.419Z,74.20
2019-04-25T04:34:24.267Z,74.20
2019-04-25T04:36:53.889Z,74.20
2019-04-25T04:39:23.570Z,74.00
2019-04-25T04:41:53.527Z,73.90
2019-04-25T04:44:24.162Z,73.90
2019-04-25T04:47:08.576Z,74.30
2019-04-25T04:49:38.006Z,74.20
2019-04-25T04:52:07.266Z,74.10
2019-04-25T04:54:36.910Z,74.10
2019-04-25T04:57:18.475Z,73.70
2019-04-25T04:59:37.260Z,73.50
2019-04-25T05:02:11.590Z,73.40
2019-04-25T05:05:00.030Z,72.70
2019-04-25T05:07:40.212Z,72.30
2019-04-25T05:10:10.581Z,71.80
2019-04-25T05:12:41.753Z,71.40
2019-04-25T05:15:12.601Z,71.20
2019-04-25T05:17:44.043Z,70.60
2019-04-25T05:20:15.929Z,70.00
2019-04-25T05:22:44.656Z,69.70
2019-04-25T05:25:17.763Z,69.60
2019-04-25T05:27:59.632Z,69.40
2019-04-25T05:30:21.163Z,68.30
2019-04-25T05:32:50.455Z,67.40
2019-04-25T05:35:20.301Z,67.50
2019-04-25T05:37:49.575Z,66.90
2019-04-25T05:40:18.937Z,67.10
2019-04-25T05:43:04.960Z,64.70
2019-04-25T05:45:34.513Z,64.60
2019-04-25T05:48:05.850Z,63.10
2019-04-25T05:50:35.391Z,60.80
2019-04-25T05:53:05.840Z,61.20
2019-04-25T05:55:35.251Z,60.00
2019-04-25T05:58:04.717Z,59.60
2019-04-25T06:00:35.211Z,58.50
2019-04-25T06:03:04.548Z,58.20
2019-04-25T06:05:35.498Z,57.50
2019-04-25T06:08:05.112Z,57.30
2019-04-25T06:10:45.239Z,57.00
2019-04-25T06:13:31.177Z,56.70
2019-04-25T06:16:03.497Z,56.70
2019-04-25T06:18:34.600Z,53.80
2019-04-25T06:21:05.022Z,54.40
2019-04-25T06:23:46.074Z,54.00
2019-04-25T06:26:26.696Z,53.70
2019-04-25T06:28:56.879Z,53.20
2019-04-25T06:31:21.416Z,51.40
2019-04-25T06:33:50.834Z,50.90
2019-04-25T06:36:21.085Z,51.40
2019-04-25T06:38:50.489Z,51.30
2019-04-25T06:41:20.063Z,50.80
2019-04-25T06:43:51.071Z,50.60
2019-04-25T06:46:25.734Z,50.40
2019-04-25T06:49:13.426Z,50.50
2019-04-25T06:51:50.327Z,49.50
2019-04-25T06:54:21.733Z,48.30
2019-04-25T06:56:51.035Z,47.80
2019-04-25T06:59:20.396Z,48.30
2019-04-25T07:01:49.964Z,47.60
2019-04-25T07:04:19.379Z,46.10
2019-04-25T07:06:49.504Z,45.70
2019-04-25T07:09:19.038Z,45.50
2019-04-25T07:11:48.609Z,45.30
2019-04-25T07:14:18.323Z,44.40
2019-04-25T07:16:48.000Z,45.10
2019-04-25T07:19:19.035Z,44.60
2019-04-25T07:21:48.509Z,44.40
2019-04-25T07:24:17.924Z,43.80
2019-04-25T07:27:05.305Z,44.00
2019-04-25T07:29:48.684Z,43.50
2019-04-25T07:32:19.656Z,43.70
2019-04-25T07:34:48.966Z,43.60
2019-04-25T07:37:18.332Z,42.90
2019-04-25T07:39:47.752Z,42.40
2019-04-25T07:42:17.091Z,42.40
2019-04-25T07:44:52.661Z,42.60
2019-04-25T07:47:17.533Z,41.60
2019-04-25T07:49:47.379Z,42.10
2019-04-25T07:52:16.748Z,42.20
2019-04-25T07:54:46.349Z,41.80
2019-04-25T07:57:15.736Z,42.30
2019-04-25T07:59:51.698Z,41.20
2019-04-25T08:02:20.760Z,40.70
2019-04-25T08:04:50.197Z,40.40
2019-04-25T08:07:19.932Z,40.50
2019-04-25T08:09:49.678Z,40.00
2019-04-25T08:12:19.137Z,40.50
2019-04-25T08:14:54.248Z,40.50
2019-04-25T08:17:41.930Z,40.10
2019-04-25T08:20:11.412Z,40.30
2019-04-25T08:22:52.931Z,40.00
2019-04-25T08:25:13.820Z,39.70
2019-04-25T08:27:44.965Z,40.40
2019-04-25T08:30:14.601Z,38.40
2019-04-25T08:32:44.319Z,38.20
2019-04-25T08:35:16.008Z,38.40
2019-04-25T08:37:44.716Z,38.20
2019-04-25T08:40:14.117Z,38.90
2019-04-25T08:42:44.208Z,39.50
2019-04-25T08:45:13.919Z,37.00
2019-04-25T08:47:43.940Z,37.00
2019-04-25T08:50:28.989Z,35.80
2019-04-25T08:52:52.364Z,35.60
2019-04-25T08:55:36.239Z,35.20
2019-04-25T08:58:13.830Z,36.70
2019-04-25T09:00:57.865Z,37.30
2019-04-25T09:03:21.289Z,36.10
2019-04-25T09:05:51.011Z,34.90
2019-04-25T09:08:20.430Z,35.20
2019-04-25T09:10:49.709Z,34.90
2019-04-25T09:13:19.153Z,34.40
2019-04-25T09:15:48.761Z,33.10
2019-04-25T09:18:18.125Z,33.50
2019-04-25T09:20:47.580Z,32.30
2019-04-25T09:23:17.378Z,32.20
2019-04-25T09:25:47.084Z,32.10
2019-04-25T09:28:16.400Z,32.90
2019-04-25T09:30:45.998Z,30.80
2019-04-25T09:33:15.449Z,30.00
2019-04-25T09:35:45.885Z,30.30
2019-04-25T09:38:15.544Z,29.60
2019-04-25T09:40:45.668Z,29.50
2019-04-25T09:43:16.121Z,29.30
2019-04-25T09:45:56.337Z,28.00
2019-04-25T09:48:44.581Z,28.60
2019-04-25T09:51:19.633Z,28.30
2019-04-25T09:53:51.485Z,27.70
2019-04-25T09:56:25.231Z,25.40
2019-04-25T09:58:56.137Z,26.80
2019-04-25T10:01:25.693Z,26.50
2019-04-25T10:03:54.964Z,26.90
2019-04-25T10:06:24.329Z,27.10
2019-04-25T10:08:54.299Z,26.00
2019-04-25T10:11:23.889Z,25.70
2019-04-25T10:14:06.843Z,23.80
2019-04-25T10:16:37.950Z,23.70
2019-04-25T10:19:08.267Z,23.40
2019-04-25T10:21:38.095Z,23.30
2019-04-25T10:24:08.541Z,23.00
2019-04-25T10:26:38.970Z,23.30
2019-04-25T10:29:09.084Z,22.60
2019-04-25T10:31:38.499Z,23.60
2019-04-25T10:34:09.204Z,22.30
2019-04-25T10:36:39.895Z,21.30
2019-04-25T10:39:11.165Z,22.30
2019-04-25T10:41:41.415Z,22.20
2019-04-25T10:44:11.952Z,21.80
2019-04-25T10:46:41.783Z,21.10
2019-04-25T10:49:11.579Z,22.20
2019-04-25T10:51:42.163Z,22.00
2019-04-25T10:54:12.104Z,22.00
2019-04-25T10:56:41.740Z,21.60
2019-04-25T10:59:11.450Z,21.80
2019-04-25T11:01:41.237Z,22.20
2019-04-25T11:04:13.859Z,22.20
2019-04-25T11:06:45.381Z,22.80
2019-04-25T11:09:18.644Z,22.90
2019-04-25T11:11:48.168Z,23.20
2019-04-25T11:14:17.872Z,22.90
2019-04-25T11:16:48.292Z,23.10
2019-04-25T11:19:17.901Z,23.10
2019-04-25T11:21:47.736Z,23.90
2019-04-25T11:24:17.203Z,23.10
2019-04-25T11:26:49.917Z,22.60
2019-04-25T11:29:17.852Z,21.90
2019-04-25T11:31:48.954Z,20.70
2019-04-25T11:34:18.544Z,21.30
2019-04-25T11:36:51.123Z,20.50
2019-04-25T11:39:37.392Z,20.50
2019-04-25T11:42:07.372Z,20.90
2019-04-25T11:44:37.080Z,21.20
2019-04-25T11:47:08.535Z,20.80
2019-04-25T11:49:37.939Z,20.90
2019-04-25T11:52:08.344Z,21.10
2019-04-25T11:54:37.752Z,20.20
2019-04-25T11:57:08.414Z,19.30
2019-04-25T11:59:37.903Z,19.20
2019-04-25T12:02:08.833Z,18.60
2019-04-25T12:04:38.304Z,18.50
2019-04-25T12:07:08.630Z,18.10
2019-04-25T12:09:38.920Z,18.50
2019-04-25T12:12:08.430Z,19.50
2019-04-25T12:14:37.643Z,18.90
2019-04-25T12:17:07.327Z,19.00
2019-04-25T12:19:38.036Z,18.20
2019-04-25T12:22:07.988Z,18.40
2019-04-25T12:24:37.696Z,18.70
2019-04-25T12:27:07.088Z,18.40
2019-04-25T12:29:38.737Z,18.10
2019-04-25T12:32:07.944Z,18.40
2019-04-25T12:34:37.204Z,18.80
2019-04-25T12:37:07.003Z,18.20
2019-04-25T12:39:36.388Z,18.50
2019-04-25T12:42:06.059Z,18.70
2019-04-25T12:44:54.836Z,19.10
2019-04-25T12:47:25.949Z,17.70
2019-04-25T12:49:56.087Z,17.50
2019-04-25T12:52:25.428Z,18.80
2019-04-25T12:54:57.224Z,18.90
2019-04-25T12:57:26.465Z,18.60
2019-04-25T12:59:56.062Z,18.60
2019-04-25T13:02:25.759Z,19.20
2019-04-25T13:04:55.527Z,19.20
2019-04-25T13:07:24.907Z,19.70
2019-04-25T13:09:55.340Z,19.70
2019-04-25T13:12:25.155Z,21.20
2019-04-25T13:14:54.873Z,20.40
2019-04-25T13:17:24.328Z,19.30
2019-04-25T13:19:54.331Z,19.80
2019-04-25T13:22:24.237Z,19.80
2019-04-25T13:24:53.644Z,20.80
2019-04-25T13:27:39.719Z,20.00
2019-04-25T13:30:19.583Z,20.20
2019-04-25T13:33:06.876Z,20.50
2019-04-25T13:35:37.945Z,21.40
2019-04-25T13:38:07.451Z,19.60
2019-04-25T13:40:36.736Z,20.80
2019-04-25T13:43:06.459Z,20.70
2019-04-25T13:45:35.996Z,19.80
2019-04-25T13:48:05.381Z,19.40
2019-04-25T13:50:35.131Z,19.70
2019-04-25T13:53:04.513Z,20.10
2019-04-25T13:55:35.219Z,21.40
2019-04-25T13:58:04.820Z,20.30
2019-04-25T14:00:34.859Z,20.00
2019-04-25T14:03:04.453Z,21.00
2019-04-25T14:05:35.305Z,20.70
2019-04-25T14:08:04.784Z,19.70
2019-04-25T14:10:35.207Z,19.80
2019-04-25T14:13:04.935Z,21.20
2019-04-25T14:15:37.163Z,21.00
2019-04-25T14:18:14.344Z,21.00
2019-04-25T14:20:45.400Z,20.80
2019-04-25T14:23:15.287Z,21.50
2019-04-25T14:25:44.720Z,21.40
2019-04-25T14:28:14.205Z,21.40
2019-04-25T14:30:43.715Z,21.50
2019-04-25T14:33:13.570Z,21.20
2019-04-25T14:35:43.261Z,21.30
2019-04-25T14:38:13.882Z,20.70
2019-04-25T14:40:43.257Z,20.20
2019-04-25T14:43:12.700Z,21.30
2019-04-25T14:45:44.939Z,21.00
2019-04-25T14:48:13.021Z,20.90
2019-04-25T14:50:42.279Z,20.80
2019-04-25T14:53:11.571Z,21.10
2019-04-25T14:55:42.477Z,21.00
2019-04-25T14:58:16.548Z,20.80
2019-04-25T15:00:47.458Z,21.70
2019-04-25T15:03:16.867Z,20.60
2019-04-25T15:05:47.256Z,20.70
2019-04-25T15:08:16.877Z,20.60
2019-04-25T15:10:48.309Z,20.80
2019-04-25T15:13:17.324Z,22.10
2019-04-25T15:15:46.671Z,21.40
2019-04-25T15:18:16.155Z,21.30
2019-04-25T15:20:45.495Z,21.30
2019-04-25T15:23:14.978Z,20.80
2019-04-25T15:25:45.445Z,21.30
2019-04-25T15:28:14.738Z,21.10
2019-04-25T15:30:44.268Z,21.40
2019-04-25T15:33:13.650Z,21.50
2019-04-25T15:35:45.054Z,21.60
2019-04-25T15:38:21.305Z,21.40
2019-04-25T15:40:56.156Z,21.60
2019-04-25T15:43:27.647Z,22.00
2019-04-25T15:46:08.519Z,21.70
2019-04-25T15:48:39.590Z,22.80
2019-04-25T15:51:10.402Z,21.50
2019-04-25T15:53:40.332Z,21.60
2019-04-25T15:56:09.757Z,21.90
2019-04-25T15:58:39.113Z,22.00
2019-04-25T16:01:08.919Z,21.40
2019-04-25T16:03:38.888Z,22.00
2019-04-25T16:06:08.437Z,21.90
2019-04-25T16:08:37.833Z,22.30
2019-04-25T16:11:07.494Z,22.30
2019-04-25T16:13:37.506Z,22.50
2019-04-25T16:16:07.392Z,22.90
2019-04-25T16:18:36.759Z,22.50
2019-04-25T16:21:08.481Z,22.00
2019-04-25T16:23:38.733Z,22.70
2019-04-25T16:26:09.124Z,23.10
2019-04-25T16:28:39.985Z,22.20
2019-04-25T16:31:12.235Z,22.70
2019-04-25T16:33:42.143Z,22.60
2019-04-25T16:36:12.203Z,23.00
2019-04-25T16:38:41.924Z,22.80
2019-04-25T16:41:12.176Z,23.20
2019-04-25T16:43:43.449Z,23.70
2019-04-25T16:46:13.533Z,23.30
2019-04-25T16:48:43.208Z,23.70
2019-04-25T16:51:12.756Z,23.80
2019-04-25T16:53:42.271Z,23.70
2019-04-25T16:56:12.164Z,24.00
2019-04-25T16:58:42.528Z,24.00
2019-04-25T17:01:13.944Z,25.30
2019-04-25T17:03:43.867Z,25.00
2019-04-25T17:06:13.383Z,24.80
2019-04-25T17:08:43.866Z,25.20
2019-04-25T17:11:14.082Z,25.60
2019-04-25T17:13:44.985Z,25.80
2019-04-25T17:16:32.577Z,25.80
2019-04-25T17:19:12.843Z,25.90
2019-04-25T17:21:43.011Z,26.10
2019-04-25T17:24:12.385Z,26.40
2019-04-25T17:26:42.230Z,26.60
2019-04-25T17:29:13.415Z,27.00
2019-04-25T17:31:56.779Z,27.10
2019-04-25T17:34:36.639Z,27.10
2019-04-25T17:37:19.819Z,27.50
2019-04-25T17:39:50.871Z,27.50
2019-04-25T17:42:20.506Z,27.80
2019-04-25T17:44:49.987Z,28.00
2019-04-25T17:47:19.697Z,28.20
2019-04-25T17:49:49.079Z,28.30
2019-04-25T17:52:18.605Z,28.50
2019-04-25T17:54:48.000Z,29.00
2019-04-25T17:57:17.573Z,29.10
2019-04-25T17:59:46.978Z,29.20
2019-04-25T18:02:16.341Z,29.10
2019-04-25T18:04:46.057Z,29.50
2019-04-25T18:07:15.457Z,29.50
2019-04-25T18:09:45.665Z,29.80
2019-04-25T18:12:15.085Z,30.00
2019-04-25T18:14:44.810Z,30.10
2019-04-25T18:17:14.502Z,30.20
2019-04-25T18:19:48.628Z,30.30
2019-04-25T18:22:20.040Z,30.30
2019-04-25T18:24:57.029Z,30.70
2019-04-25T18:27:28.056Z,30.70
2019-04-25T18:29:57.704Z,30.90
2019-04-25T18:32:28.608Z,31.00
2019-04-25T18:34:59.656Z,31.40
2019-04-25T18:37:37.311Z,31.10
2019-04-25T18:40:08.351Z,32.50
2019-04-25T18:42:46.116Z,31.60
2019-04-25T18:45:23.208Z,31.70
2019-04-25T18:47:52.832Z,31.70
2019-04-25T18:50:23.832Z,31.70
2019-04-25T18:52:54.952Z,32.10
2019-04-25T18:55:28.956Z,32.40
2019-04-25T18:58:08.871Z,32.60
2019-04-25T19:00:56.096Z,32.60
2019-04-25T19:03:43.832Z,33.00
2019-04-25T19:06:17.731Z,32.90
2019-04-25T19:08:47.385Z,33.30
2019-04-25T19:11:17.167Z,33.30
2019-04-25T19:13:47.390Z,33.30
2019-04-25T19:16:16.672Z,33.50
2019-04-25T19:18:47.159Z,33.50
2019-04-25T19:21:17.506Z,33.80
2019-04-25T19:23:46.835Z,33.80
2019-04-25T19:26:16.131Z,33.90
2019-04-25T19:28:45.467Z,33.80
2019-04-25T19:31:15.169Z,33.80
2019-04-25T19:33:45.465Z,33.90
2019-04-25T19:36:14.972Z,33.90
2019-04-25T19:38:44.421Z,34.10
2019-04-25T19:41:15.433Z,34.40
2019-04-25T19:43:55.608Z,34.40
2019-04-25T19:46:26.652Z,34.40
2019-04-25T19:48:56.373Z,34.40
2019-04-25T19:51:26.560Z,34.60
2019-04-25T19:53:56.161Z,34.80
2019-04-25T19:56:25.640Z,34.80
2019-04-25T19:58:55.257Z,34.70
2019-04-25T20:01:24.796Z,34.70
2019-04-25T20:04:11.336Z,35.00
2019-04-25T20:06:58.591Z,34.90
2019-04-25T20:09:46.954Z,34.80
2019-04-25T20:12:16.472Z,34.90
2019-04-25T20:14:45.806Z,34.80
2019-04-25T20:17:15.520Z,34.70
2019-04-25T20:19:45.916Z,35.00
2019-04-25T20:22:15.378Z,34.70
2019-04-25T20:24:46.233Z,34.90
2019-04-25T20:27:15.591Z,35.10
2019-04-25T20:29:45.310Z,35.00
2019-04-25T20:32:16.715Z,35.90
2019-04-25T20:34:46.969Z,35.50
2019-04-25T20:37:16.775Z,35.50
2019-04-25T20:39:46.067Z,35.60
2019-04-25T20:42:15.329Z,36.80
2019-04-25T20:44:45.577Z,35.90
2019-04-25T20:47:15.856Z,36.00
2019-04-25T20:49:46.652Z,36.10
2019-04-25T20:52:16.046Z,36.20
2019-04-25T20:54:46.594Z,36.30
2019-04-25T20:57:16.790Z,36.10
2019-04-25T20:59:47.959Z,36.20
2019-04-25T21:02:17.705Z,36.20
2019-04-25T21:04:47.737Z,36.30
2019-04-25T21:07:18.291Z,36.40
2019-04-25T21:09:47.587Z,36.30
2019-04-25T21:12:16.843Z,36.30
2019-04-25T21:14:50.714Z,36.50
2019-04-25T21:17:22.028Z,36.70
2019-04-25T21:19:52.954Z,36.70
2019-04-25T21:22:22.216Z,36.80
2019-04-25T21:24:51.859Z,37.00
2019-04-25T21:27:21.288Z,36.70
2019-04-25T21:29:52.003Z,37.00
2019-04-25T21:32:22.925Z,37.10
2019-04-25T21:34:53.072Z,37.10
2019-04-25T21:37:24.155Z,37.00
2019-04-25T21:39:58.601Z,37.20
2019-04-25T21:42:30.836Z,37.30
2019-04-25T21:45:00.488Z,37.40
2019-04-25T21:47:30.244Z,37.50
2019-04-25T21:50:00.641Z,37.60
2019-04-25T21:52:30.556Z,37.70
2019-04-25T21:55:00.263Z,37.60
2019-04-25T21:57:31.500Z,37.60
2019-04-25T22:00:06.643Z,37.70
2019-04-25T22:02:34.260Z,37.80
2019-04-25T22:05:04.989Z,37.80
2019-04-25T22:07:35.084Z,38.50
2019-04-25T22:10:07.009Z,37.90
2019-04-25T22:12:37.475Z,38.10
2019-04-25T22:15:08.776Z,38.40
2019-04-25T22:17:39.431Z,38.40
2019-04-25T22:20:10.751Z,38.00
2019-04-25T22:22:39.911Z,37.50
2019-04-25T22:25:09.243Z,37.40
2019-04-25T22:27:39.000Z,37.40
2019-04-25T22:30:10.024Z,37.10
2019-04-25T22:32:59.600Z,36.90
2019-04-25T22:35:33.863Z,36.90
2019-04-25T22:38:04.277Z,36.70
2019-04-25T22:40:33.691Z,36.70
2019-04-25T22:43:03.529Z,36.80
2019-04-25T22:45:33.304Z,37.10
2019-04-25T22:48:02.960Z,37.90
2019-04-25T22:50:32.428Z,37.20
2019-04-25T22:53:02.061Z,37.30
2019-04-25T22:55:32.206Z,37.30
2019-04-25T22:58:02.768Z,37.10
2019-04-25T23:00:34.140Z,37.00
2019-04-25T23:03:05.556Z,37.00
2019-04-25T23:05:48.469Z,36.60
2019-04-25T23:08:18.181Z,36.40
2019-04-25T23:10:47.481Z,36.50
2019-04-25T23:13:16.897Z,37.10
2019-04-25T23:15:46.235Z,36.20
2019-04-25T23:18:16.045Z,36.20
2019-04-25T23:20:45.714Z,36.00
2019-04-25T23:23:15.380Z,36.60
2019-04-25T23:25:55.433Z,36.40
2019-04-25T23:28:26.769Z,36.40
2019-04-25T23:30:57.788Z,36.70
2019-04-25T23:33:27.079Z,37.00
2019-04-25T23:35:56.596Z,36.80
2019-04-25T23:38:26.000Z,37.40
2019-04-25T23:40:55.267Z,37.30
2019-04-25T23:43:24.973Z,37.30
2019-04-25T23:45:54.356Z,37.60
2019-04-25T23:48:23.946Z,37.60
2019-04-25T23:50:53.730Z,37.80
2019-04-25T23:53:23.217Z,38.30
2019-04-25T23:55:52.602Z,38.60
2019-04-25T23:58:21.892Z,38.70
